Home > Products > Valid Products > MTR

000
SAUS45 KGGW 280949
MTRJDN
METAR KJDN 280948Z AUTO 29003KT M02/M02 A2963 RMK AO1 SLP051
T10171022





000
SAUS45 KGGW 280849
MTRJDN
METAR KJDN 280848Z AUTO 33003KT M02/M03 A2963 RMK AO1 SLP054
T10221033 58010





000
SAUS45 KGGW 280749
MTRJDN
METAR KJDN 280748Z AUTO 26004KT M02/M03 A2965 RMK AO1 SLP062
T10221028





000
SAUS45 KGGW 280649
MTRJDN
METAR KJDN 280648Z AUTO 15003KT M02/M03 A2966 RMK AO1 SLP065
T10171028 401061039





000
SAUS45 KGGW 280549
MTRJDN
METAR KJDN 280548Z AUTO 13003KT M01/M02 A2967 RMK AO1 SLP072
T10111022 10050 21017 56017





000
SAUS45 KGGW 280449
MTRJDN
METAR KJDN 280448Z AUTO 00000KT 00/M01 A2967 RMK AO1 SLP075
T00001006





000
SAUS45 KGGW 280349
MTRJDN
METAR KJDN 280348Z AUTO 00000KT M02/M02 A2970 RMK AO1 SLP087
T10171022





000
SAUS45 KGGW 280349
MTRJDN
METAR KJDN 280348Z AUTO 00000KT M02/M02 A2970 RMK AO1 SLP087
T10171022





000
SAUS45 KGGW 280249
MTRJDN
METAR KJDN 280248Z AUTO 28004KT M01/M02 A2972 RMK AO1 SLP095
T10061017 58007





000
SAUS45 KGGW 280149
MTRJDN
METAR KJDN 280148Z AUTO 00000KT 00/M01 A2973 RMK AO1 SLP097
T00001011





000
SAUS45 KGGW 280149
MTRJDN
METAR KJDN 280148Z AUTO 00000KT 00/M01 A2973 RMK AO1 SLP097
T00001011





000
SAUS45 KGGW 280049
MTRJDN
METAR KJDN 280048Z AUTO 30008KT 03/01 A2974 RMK AO1 SLP097 T00330006





000
SAUS45 KGGW 272349
MTRJDN
METAR KJDN 272348Z AUTO 28004KT 04/01 A2974 RMK AO1 SLP098 T00440006
10106 20022 53002





000
SAUS45 KGGW 272249
MTRJDN
METAR KJDN 272248Z AUTO 25005KT 08/02 A2974 RMK AO1 SLP091 T00830022





000
SAUS45 KGGW 272149
MTRJDN
METAR KJDN 272148Z AUTO 26008KT 10/02 A2974 RMK AO1 SLP091 T01000022





000
SAUS45 KGGW 272049
MTRJDN
METAR KJDN 272048Z AUTO 25011KT 09/02 A2974 RMK AO1 SLP090 T00940017
56022





000
SAUS45 KGGW 271949
MTRJDN
METAR KJDN 271948Z AUTO 25010KT 07/01 A2975 RMK AO1 SLP096 T00720006





000
SAUS45 KGGW 271849
MTRJDN
METAR KJDN 271848Z AUTO 25005KT 06/01 A2977 RMK AO1 SLP107 T00610011





000
SAUS45 KGGW 271749
MTRJDN
METAR KJDN 271748Z AUTO 19004KT 02/00 A2981 RMK AO1 SLP123 T00220000
10022 21028 58027





000
SAUS45 KGGW 271649
MTRJDN
METAR KJDN 271648Z AUTO 00000KT 01/M02 A2983 RMK AO1 SLP135
T00061017





000
SAUS45 KGGW 271549
MTRJDN
METAR KJDN 271548Z AUTO 13005KT M01/M03 A2987 RMK AO1 SLP149
T10111028





000
SAUS45 KGGW 271449
MTRJDN
METAR KJDN 271448Z AUTO 14007KT M02/M04 A2989 RMK AO1 SLP158
T10221039 56036





000
SAUS45 KGGW 271349
MTRJDN
METAR KJDN 271348Z AUTO 13009KT M02/M04 A2992 RMK AO1 SLP167
T10221039





000
SAUS45 KGGW 271249
MTRJDN
METAR KJDN 271248Z AUTO 14012KT M02/M04 A2996 RMK AO1 SLP178
T10221039





000
SAUS45 KGGW 271149
MTRJDN
METAR KJDN 271148Z AUTO 14011KT M03/M04 A3001 RMK AO1 SLP197 P0001
60003 70009 T10281044 11028 21039 56030





000
SAUS45 KGGW 271049
MTRJDN
METAR KJDN 271048Z AUTO 13010KT M03/M04 A3003 RMK AO1 SLP205
T10281044





000
SAUS45 KGGW 270949
MTRJDN
METAR KJDN 270948Z AUTO 12007KT M03/M04 A3008 RMK AO1 SLP222
T10331044





000
SAUS45 KGGW 270849
MTRJDN
METAR KJDN 270848Z AUTO 12008KT M03/M05 A3010 RMK AO1 SLP231 60002
T10331050 56026





000
SAUS45 KGGW 270749
MTRJDN
METAR KJDN 270748Z AUTO 13011KT M03/M05 A3012 RMK AO1 SLP235
T10331050





000
SAUS45 KGGW 270649
MTRJDN
METAR KJDN 270648Z AUTO 12008KT M04/M05 A3016 RMK AO1 SLP251 P0002
T10391050 410221039





000
SAUS45 KGGW 270549
MTRJDN
METAR KJDN 270548Z AUTO 13007KT M04/M05 A3019 RMK AO1 SLP260 P0001
60004 T10391050 11022 21039 56015





000
SAUS45 KGGW 270449
MTRJDN
METAR KJDN 270448Z AUTO 14008KT M04/M06 A3020 RMK AO1 SLP264 P0001
T10391056





000
SAUS45 KGGW 270449
MTRJDN
METAR KJDN 270448Z AUTO 14008KT M04/M06 A3020 RMK AO1 SLP264 P0001
T10391056





000
SAUS45 KGGW 270349
MTRJDN
METAR KJDN 270348Z AUTO 14010KT M04/M05 A3021 RMK AO1 SLP270 P0001
T10391050





000
SAUS45 KGGW 270349
MTRJDN
METAR KJDN 270348Z AUTO 14010KT M04/M05 A3021 RMK AO1 SLP270 P0001
T10391050





000
SAUS45 KGGW 270249
MTRJDN
METAR KJDN 270248Z AUTO 12008KT M03/M04 A3023 RMK AO1 SLP276 P0001
60001 T10331044 56007





000
SAUS45 KGGW 270149
MTRJDN
METAR KJDN 270148Z AUTO 10006KT M03/M04 A3024 RMK AO1 SLP278
T10331044





000
SAUS45 KGGW 270049
MTRJDN
METAR KJDN 270048Z AUTO 10007KT M03/M04 A3025 RMK AO1 SLP280
T10281044





000
SAUS45 KGGW 262349
MTRJDN
METAR KJDN 262348Z AUTO 10006KT M02/M05 A3026 RMK AO1 SLP283
T10221050 11022 21033 53001





000
SAUS45 KGGW 262249
MTRJDN
METAR KJDN 262248Z AUTO 13008KT M02/M05 A3024 RMK AO1 SLP278
T10221050





000
SAUS45 KGGW 262149
MTRJDN
METAR KJDN 262148Z AUTO 13006KT M02/M05 A3025 RMK AO1 SLP280
T10221050





000
SAUS45 KGGW 262149
MTRJDN
METAR KJDN 262148Z AUTO 13006KT M02/M05 A3025 RMK AO1 SLP280
T10221050





000
SAUS45 KGGW 262050
MTRJDN
METAR KJDN 262048Z AUTO 13007KT M02/M05 A3025 RMK AO1 SLP281
T10221050 55004





000
SAUS45 KGGW 261949
MTRJDN
METAR KJDN 261948Z AUTO 13007KT M03/M05 A3025 RMK AO1 SLP281
T10281050





000
SAUS45 KGGW 261849
MTRJDN
METAR KJDN 261848Z AUTO 10007KT M03/M05 A3025 RMK AO1 SLP283
T10281050





000
SAUS45 KGGW 261749
MTRJDN
METAR KJDN 261748Z AUTO 09006KT M03/M05 A3027 RMK AO1 SLP288 60002
T10331050 11028 21039 53012





000
SAUS45 KGGW 261649
MTRJDN
METAR KJDN 261648Z AUTO 09007KT M03/M05 A3025 RMK AO1 SLP284
T10331050





000
SAUS45 KGGW 261549
MTRJDN
METAR KJDN 261548Z AUTO 11005KT M04/M05 A3023 RMK AO1 SLP277 P0001
T10391050





000
SAUS45 KGGW 261449
MTRJDN
METAR KJDN 261448Z AUTO 08004KT M04/M05 A3023 RMK AO1 SLP273 60001
T10391050 53010





000
SAUS45 KGGW 261349
MTRJDN
METAR KJDN 261348Z AUTO 00000KT M03/M05 A3021 RMK AO1 SLP267 P0001
T10331050





000
SAUS45 KGGW 261249
MTRJDN
METAR KJDN 261248Z AUTO 00000KT M03/M05 A3020 RMK AO1 SLP263
T10331050





000
SAUS45 KGGW 261149
MTRJDN
METAR KJDN 261148Z AUTO 00000KT M03/M06 A3020 RMK AO1 SLP261 70005
T10331056 11028 21039 53002





000
SAUS45 KGGW 261049
MTRJDN
METAR KJDN 261048Z AUTO 09003KT M03/M05 A3018 RMK AO1 SLP254
T10331050





000
SAUS45 KGGW 260949
MTRJDN
METAR KJDN 260948Z AUTO 03005KT M03/M06 A3019 RMK AO1 SLP256
T10281056





000
SAUS45 KGGW 260849
MTRJDN
METAR KJDN 260848Z AUTO 00000KT M03/M06 A3019 RMK AO1 SLP255
T10281056 53005





000
SAUS45 KGGW 260749
MTRJDN
METAR KJDN 260748Z AUTO 00000KT M04/M06 A3016 RMK AO1 SLP246
T10391056





000
SAUS45 KGGW 260649
MTRJDN
METAR KJDN 260648Z AUTO 24003KT M03/M05 A3017 RMK AO1 SLP250
T10281050 400391044





000
SAUS45 KGGW 260549
MTRJDN
METAR KJDN 260548Z AUTO 00000KT M03/M05 A3018 RMK AO1 SLP248
T10331050 11011 21044 53016





000
SAUS45 KGGW 260449
MTRJDN
METAR KJDN 260448Z AUTO 31007KT M04/M06 A3015 RMK AO1 SLP242
T10391056





000
SAUS45 KGGW 260349
MTRJDN
METAR KJDN 260348Z AUTO 34009KT M03/M06 A3013 RMK AO1 SLP237
T10281056





000
SAUS45 KGGW 260349
MTRJDN
METAR KJDN 260348Z AUTO 34009KT M03/M06 A3013 RMK AO1 SLP237
T10281056





000
SAUS45 KGGW 260252
MTRJDN
NO CARRIER

RING

CONNECT 1200

BOIMTRSNT ALL
TTAA00 KSNT 260251
METAR KSNT 260251Z AUTO 00000KT 03/00 A3022 RMK AO1 SLP215 T00280000
53008





000
SAUS45 KGGW 260149
MTRJDN
METAR KJDN 260148Z AUTO 34010KT M02/M04 A3009 RMK AO1 SLP222
T10221044





000
SAUS45 KGGW 260049
MTRJDN
METAR KJDN 260048Z AUTO 34012KT M02/M04 A3007 RMK AO1 SLP213
T10171044





000
SAUS45 KGGW 252349
MTRJDN
METAR KJDN 252348Z AUTO 33016G25KT M01/M04 A3001 RMK AO1 PK WND
34029/2330 SLP191 T10111044 10039 21011 53045





000
SAUS45 KGGW 252249
MTRJDN
METAR KJDN 252248Z AUTO 32019G28KT 01/M04 A2995 RMK AO1 PK WND
31031/2159 SLP169 T00111039





000
SAUS45 KGGW 252149
MTRJDN
METAR KJDN 252148Z AUTO 32022G29KT 02/M04 A2990 RMK AO1 PK WND
32035/2115 SLP150 T00171039





000
SAUS45 KGGW 252149
MTRJDN
METAR KJDN 252148Z AUTO 32022G29KT 02/M04 A2990 RMK AO1 PK WND
32035/2115 SLP150 T00171039





000
SAUS45 KGGW 252050
MTRJDN
METAR KJDN 252048Z AUTO 32023G33KT 02/M03 A2986 RMK AO1 PK WND
31035/2018 SLP135 T00221033 53016





000
SAUS45 KGGW 251949
MTRJDN
METAR KJDN 251948Z AUTO 29017G20KT 03/M02 A2983 RMK AO1 SLP125
T00281017





000
SAUS45 KGGW 251849
MTRJDN
METAR KJDN 251848Z AUTO 29013KT 02/M01 A2981 RMK AO1 PK WND
31037/1805 SLP120 T00221011





000
SAUS45 KGGW 251749
MTRJDN
METAR KJDN 251748Z AUTO 30019KT 04/01 A2981 RMK AO1 SLP120 60005
T00390006 10039 20006 53021





000
SAUS45 KGGW 251652
MTRJDN
METAR KJDN 251648Z AUTO 29012KT 03/01 A2979 RM
NO CARRIER

RING

CONNECT 1200

BOIMTRSNT ALL
TTAA00 KSNT 251651
METAR KSNT 251651Z AUTO 00000KT 01/M01 A3020 RMK AO1 SLP217
T00111011





000
SAUS45 KGGW 251652
MTRJDN
METAR KJDN 251648Z AUTO 29012KT 03/01 A2979 RM
NO CARRIER

RING

CONNECT 1200

BOIMTRSNT ALL
TTAA00 KSNT 251651
METAR KSNT 251651Z AUTO 00000KT 01/M01 A3020 RMK AO1 SLP217
T00111011





000
SAUS45 KGGW 251549
MTRJDN
METAR KJDN 251548Z AUTO 30007KT 02/01 A2976 RMK AO1 SLP108 T00170006





000
SAUS45 KGGW 251449
MTRJDN
METAR KJDN 251448Z AUTO 29010KT 01/00 A2974 RMK AO1 SLP101 P0001
60005 T00110000 53002





000
SAUS45 KGGW 251349
MTRJDN
METAR KJDN 251348Z AUTO 28008KT 01/00 A2973 RMK AO1 SLP098 P0003
T00110000





000
SAUS45 KGGW 251249
MTRJDN
METAR KJDN 251248Z AUTO 27007KT 02/00 A2973 RMK AO1 SLP095 P0001
T00170000





000
SAUS45 KGGW 251149
MTRJDN
METAR KJDN 251148Z AUTO 24005KT 01/M01 A2974 RMK AO1 SLP096 P0002
60002 70002 T00061006 10033 21011 58022





000
SAUS45 KGGW 251049
MTRJDN
METAR KJDN 251048Z AUTO 25005KT 02/M01 A2976 RMK AO1 SLP102
T00171011





000
SAUS45 KGGW 251049
MTRJDN
METAR KJDN 251048Z AUTO 25005KT 02/M01 A2976 RMK AO1 SLP102
T00171011





    US Dept of Commerce
    National Oceanic and Atmospheric Administration
    National Weather Service
    1325 East West Highway
    Silver Spring, MD 20910
    Page Author: NWS Internet Services Team
Disclaimer
Information Quality
Credits
Glossary
Privacy Policy
Freedom of Information Act (FOIA)
About Us
Career Opportunities